sensor_id;sensor_type;location;lat;lon;timestamp;temperature;humidity
563;DHT22;266;49.514;8.294;2023-06-05T00:01:35;15.10;98.50
563;DHT22;266;49.514;8.294;2023-06-05T00:04:03;15.10;98.90
563;DHT22;266;49.514;8.294;2023-06-05T00:06:32;15.00;99.20
563;DHT22;266;49.514;8.294;2023-06-05T00:09:00;14.90;99.20
563;DHT22;266;49.514;8.294;2023-06-05T00:11:28;14.90;99.20
563;DHT22;266;49.514;8.294;2023-06-05T00:13:57;14.80;99.20
563;DHT22;266;49.514;8.294;2023-06-05T00:16:25;14.80;99.90
563;DHT22;266;49.514;8.294;2023-06-05T00:18:53;14.70;99.40
563;DHT22;266;49.514;8.294;2023-06-05T00:21:21;14.70;99.90
563;DHT22;266;49.514;8.294;2023-06-05T00:23:49;14.70;99.90
563;DHT22;266;49.514;8.294;2023-06-05T00:26:17;14.60;99.90
563;DHT22;266;49.514;8.294;2023-06-05T00:28:46;14.60;99.90
563;DHT22;266;49.514;8.294;2023-06-05T00:31:15;14.60;99.90
563;DHT22;266;49.514;8.294;2023-06-05T00:33:45;14.60;99.90
563;DHT22;266;49.514;8.294;2023-06-05T00:36:13;14.50;99.90
563;DHT22;266;49.514;8.294;2023-06-05T00:38:41;14.50;99.90
563;DHT22;266;49.514;8.294;2023-06-05T00:41:09;14.60;99.90
563;DHT22;266;49.514;8.294;2023-06-05T00:43:37;14.50;99.90
563;DHT22;266;49.514;8.294;2023-06-05T00:46:05;14.50;99.90
563;DHT22;266;49.514;8.294;2023-06-05T00:48:35;14.50;99.90
563;DHT22;266;49.514;8.294;2023-06-05T00:51:03;14.50;99.90
563;DHT22;266;49.514;8.294;2023-06-05T00:53:33;14.50;99.90
563;DHT22;266;49.514;8.294;2023-06-05T00:56:02;14.50;99.90
563;DHT22;266;49.514;8.294;2023-06-05T00:58:30;14.50;99.90
563;DHT22;266;49.514;8.294;2023-06-05T01:01:00;14.50;99.90
563;DHT22;266;49.514;8.294;2023-06-05T01:03:30;14.50;99.90
563;DHT22;266;49.514;8.294;2023-06-05T01:06:01;14.50;99.90
563;DHT22;266;49.514;8.294;2023-06-05T01:08:31;14.50;99.90
563;DHT22;266;49.514;8.294;2023-06-05T01:11:13;14.50;99.90
563;DHT22;266;49.514;8.294;2023-06-05T01:13:50;14.50;99.90
563;DHT22;266;49.514;8.294;2023-06-05T01:16:20;14.50;99.90
563;DHT22;266;49.514;8.294;2023-06-05T01:18:58;14.50;99.90
563;DHT22;266;49.514;8.294;2023-06-05T01:21:31;14.50;99.90
563;DHT22;266;49.514;8.294;2023-06-05T01:24:01;14.50;99.90
563;DHT22;266;49.514;8.294;2023-06-05T01:26:35;14.50;99.90
563;DHT22;266;49.514;8.294;2023-06-05T01:29:07;14.50;99.90
563;DHT22;266;49.514;8.294;2023-06-05T01:31:41;14.50;99.90
563;DHT22;266;49.514;8.294;2023-06-05T01:34:13;14.50;99.90
563;DHT22;266;49.514;8.294;2023-06-05T01:36:47;14.50;99.90
563;DHT22;266;49.514;8.294;2023-06-05T01:39:17;14.40;99.90
563;DHT22;266;49.514;8.294;2023-06-05T01:41:48;14.40;99.90
563;DHT22;266;49.514;8.294;2023-06-05T01:44:17;14.40;99.90
563;DHT22;266;49.514;8.294;2023-06-05T01:46:45;14.40;99.90
563;DHT22;266;49.514;8.294;2023-06-05T01:49:14;14.30;99.90
563;DHT22;266;49.514;8.294;2023-06-05T01:51:43;14.30;99.90
563;DHT22;266;49.514;8.294;2023-06-05T01:54:11;14.30;99.90
563;DHT22;266;49.514;8.294;2023-06-05T01:56:40;14.30;99.90
563;DHT22;266;49.514;8.294;2023-06-05T01:59:10;14.20;99.90
563;DHT22;266;49.514;8.294;2023-06-05T02:01:38;14.20;99.90
563;DHT22;266;49.514;8.294;2023-06-05T02:04:06;14.20;99.90
563;DHT22;266;49.514;8.294;2023-06-05T02:06:34;14.10;99.90
563;DHT22;266;49.514;8.294;2023-06-05T02:09:08;14.10;99.90
563;DHT22;266;49.514;8.294;2023-06-05T02:11:40;14.10;99.90
563;DHT22;266;49.514;8.294;2023-06-05T02:14:12;14.10;99.90
563;DHT22;266;49.514;8.294;2023-06-05T02:16:40;14.00;99.90
563;DHT22;266;49.514;8.294;2023-06-05T02:19:10;14.00;99.90
563;DHT22;266;49.514;8.294;2023-06-05T02:21:38;13.90;99.90
563;DHT22;266;49.514;8.294;2023-06-05T02:24:06;13.90;99.90
563;DHT22;266;49.514;8.294;2023-06-05T02:26:35;13.90;99.90
563;DHT22;266;49.514;8.294;2023-06-05T02:29:04;13.90;99.90
563;DHT22;266;49.514;8.294;2023-06-05T02:31:33;13.80;99.90
563;DHT22;266;49.514;8.294;2023-06-05T02:34:01;13.80;99.90
563;DHT22;266;49.514;8.294;2023-06-05T02:36:29;13.70;99.90
563;DHT22;266;49.514;8.294;2023-06-05T02:39:00;13.70;99.90
563;DHT22;266;49.514;8.294;2023-06-05T02:41:28;13.70;99.90
563;DHT22;266;49.514;8.294;2023-06-05T02:43:56;13.70;99.90
563;DHT22;266;49.514;8.294;2023-06-05T02:46:27;13.60;99.90
563;DHT22;266;49.514;8.294;2023-06-05T02:48:55;13.60;99.90
563;DHT22;266;49.514;8.294;2023-06-05T02:51:23;13.60;99.90
563;DHT22;266;49.514;8.294;2023-06-05T02:53:51;13.60;99.90
563;DHT22;266;49.514;8.294;2023-06-05T02:56:19;13.60;99.90
563;DHT22;266;49.514;8.294;2023-06-05T02:58:48;13.60;99.90
563;DHT22;266;49.514;8.294;2023-06-05T03:01:16;13.60;99.90
563;DHT22;266;49.514;8.294;2023-06-05T03:03:47;13.50;99.90
563;DHT22;266;49.514;8.294;2023-06-05T03:06:16;13.50;99.90
563;DHT22;266;49.514;8.294;2023-06-05T03:08:45;13.50;99.90
563;DHT22;266;49.514;8.294;2023-06-05T03:11:13;13.50;99.90
563;DHT22;266;49.514;8.294;2023-06-05T03:13:40;13.40;99.90
563;DHT22;266;49.514;8.294;2023-06-05T03:16:08;13.40;99.90
563;DHT22;266;49.514;8.294;2023-06-05T03:18:37;13.40;99.90
563;DHT22;266;49.514;8.294;2023-06-05T03:21:06;13.40;99.90
563;DHT22;266;49.514;8.294;2023-06-05T03:23:37;13.40;99.90
563;DHT22;266;49.514;8.294;2023-06-05T03:26:05;13.40;99.90
563;DHT22;266;49.514;8.294;2023-06-05T03:28:32;13.40;99.90
563;DHT22;266;49.514;8.294;2023-06-05T03:31:01;13.30;99.90
563;DHT22;266;49.514;8.294;2023-06-05T03:33:29;13.30;99.90
563;DHT22;266;49.514;8.294;2023-06-05T03:35:57;13.30;99.90
563;DHT22;266;49.514;8.294;2023-06-05T03:38:28;13.30;99.90
563;DHT22;266;49.514;8.294;2023-06-05T03:40:56;13.20;99.90
563;DHT22;266;49.514;8.294;2023-06-05T03:43:23;13.20;99.90
563;DHT22;266;49.514;8.294;2023-06-05T03:45:52;13.20;99.90
563;DHT22;266;49.514;8.294;2023-06-05T03:48:20;13.20;99.90
563;DHT22;266;49.514;8.294;2023-06-05T03:50:48;13.20;99.90
563;DHT22;266;49.514;8.294;2023-06-05T03:53:19;13.20;99.90
563;DHT22;266;49.514;8.294;2023-06-05T03:55:48;13.20;99.90
563;DHT22;266;49.514;8.294;2023-06-05T03:58:19;13.20;99.90
563;DHT22;266;49.514;8.294;2023-06-05T04:00:48;13.20;99.90
563;DHT22;266;49.514;8.294;2023-06-05T04:03:16;13.20;99.90
563;DHT22;266;49.514;8.294;2023-06-05T04:05:45;13.20;99.90
563;DHT22;266;49.514;8.294;2023-06-05T04:08:13;13.20;99.90
563;DHT22;266;49.514;8.294;2023-06-05T04:10:41;13.20;99.90
563;DHT22;266;49.514;8.294;2023-06-05T04:13:10;13.20;99.90
563;DHT22;266;49.514;8.294;2023-06-05T04:15:38;13.20;99.90
563;DHT22;266;49.514;8.294;2023-06-05T04:18:06;13.30;99.90
563;DHT22;266;49.514;8.294;2023-06-05T04:20:34;13.30;99.90
563;DHT22;266;49.514;8.294;2023-06-05T04:23:02;13.30;99.90
563;DHT22;266;49.514;8.294;2023-06-05T04:25:30;13.40;99.90
563;DHT22;266;49.514;8.294;2023-06-05T04:27:58;13.40;99.90
563;DHT22;266;49.514;8.294;2023-06-05T04:30:28;13.40;99.90
563;DHT22;266;49.514;8.294;2023-06-05T04:32:56;13.50;99.90
563;DHT22;266;49.514;8.294;2023-06-05T04:35:24;13.50;99.90
563;DHT22;266;49.514;8.294;2023-06-05T04:37:53;13.50;99.90
563;DHT22;266;49.514;8.294;2023-06-05T04:40:23;13.60;99.90
563;DHT22;266;49.514;8.294;2023-06-05T04:42:51;13.60;99.90
563;DHT22;266;49.514;8.294;2023-06-05T04:45:21;13.70;99.90
563;DHT22;266;49.514;8.294;2023-06-05T04:47:50;13.70;99.90
563;DHT22;266;49.514;8.294;2023-06-05T04:50:23;13.70;99.90
563;DHT22;266;49.514;8.294;2023-06-05T04:52:52;13.70;99.90
563;DHT22;266;49.514;8.294;2023-06-05T04:55:20;13.80;99.90
563;DHT22;266;49.514;8.294;2023-06-05T04:57:48;13.90;99.90
563;DHT22;266;49.514;8.294;2023-06-05T05:00:18;13.90;99.90
563;DHT22;266;49.514;8.294;2023-06-05T05:02:46;14.00;99.90
563;DHT22;266;49.514;8.294;2023-06-05T05:05:16;14.10;99.90
563;DHT22;266;49.514;8.294;2023-06-05T05:07:44;14.10;99.90
563;DHT22;266;49.514;8.294;2023-06-05T05:10:13;14.10;99.90
563;DHT22;266;49.514;8.294;2023-06-05T05:12:41;14.20;99.90
563;DHT22;266;49.514;8.294;2023-06-05T05:15:10;14.20;99.90
563;DHT22;266;49.514;8.294;2023-06-05T05:17:38;14.30;99.90
563;DHT22;266;49.514;8.294;2023-06-05T05:20:07;14.30;99.90
563;DHT22;266;49.514;8.294;2023-06-05T05:22:36;14.40;99.90
563;DHT22;266;49.514;8.294;2023-06-05T05:25:08;14.40;99.90
563;DHT22;266;49.514;8.294;2023-06-05T05:27:36;14.50;99.90
563;DHT22;266;49.514;8.294;2023-06-05T05:30:06;14.60;99.90
563;DHT22;266;49.514;8.294;2023-06-05T05:32:34;14.70;99.90
563;DHT22;266;49.514;8.294;2023-06-05T05:35:03;14.80;99.90
563;DHT22;266;49.514;8.294;2023-06-05T05:37:32;14.80;99.90
563;DHT22;266;49.514;8.294;2023-06-05T05:40:01;14.90;99.90
563;DHT22;266;49.514;8.294;2023-06-05T05:42:30;15.00;99.90
563;DHT22;266;49.514;8.294;2023-06-05T05:44:58;15.10;99.90
563;DHT22;266;49.514;8.294;2023-06-05T05:47:26;15.10;99.90
563;DHT22;266;49.514;8.294;2023-06-05T05:49:54;15.20;99.90
563;DHT22;266;49.514;8.294;2023-06-05T05:52:22;15.30;99.90
563;DHT22;266;49.514;8.294;2023-06-05T05:54:50;15.40;99.90
563;DHT22;266;49.514;8.294;2023-06-05T05:57:20;15.50;99.90
563;DHT22;266;49.514;8.294;2023-06-05T05:59:48;15.60;99.90
563;DHT22;266;49.514;8.294;2023-06-05T06:02:16;15.70;99.90
563;DHT22;266;49.514;8.294;2023-06-05T06:04:44;15.70;99.90
563;DHT22;266;49.514;8.294;2023-06-05T06:07:13;15.80;99.90
563;DHT22;266;49.514;8.294;2023-06-05T06:09:41;15.90;99.90
563;DHT22;266;49.514;8.294;2023-06-05T06:12:09;16.00;99.90
563;DHT22;266;49.514;8.294;2023-06-05T06:14:38;16.10;99.90
563;DHT22;266;49.514;8.294;2023-06-05T06:17:06;16.20;99.90
563;DHT22;266;49.514;8.294;2023-06-05T06:19:37;16.20;99.90
563;DHT22;266;49.514;8.294;2023-06-05T06:22:05;16.30;99.90
563;DHT22;266;49.514;8.294;2023-06-05T06:24:39;16.40;99.90
563;DHT22;266;49.514;8.294;2023-06-05T06:27:07;16.50;99.90
563;DHT22;266;49.514;8.294;2023-06-05T06:29:49;16.60;99.90
563;DHT22;266;49.514;8.294;2023-06-05T06:32:19;16.70;99.90
563;DHT22;266;49.514;8.294;2023-06-05T06:34:47;16.80;99.90
563;DHT22;266;49.514;8.294;2023-06-05T06:37:16;16.90;99.90
563;DHT22;266;49.514;8.294;2023-06-05T06:39:44;17.00;99.90
563;DHT22;266;49.514;8.294;2023-06-05T06:42:12;17.00;99.90
563;DHT22;266;49.514;8.294;2023-06-05T06:44:41;17.20;99.90
563;DHT22;266;49.514;8.294;2023-06-05T06:47:10;17.30;99.90
563;DHT22;266;49.514;8.294;2023-06-05T06:49:38;17.30;99.90
563;DHT22;266;49.514;8.294;2023-06-05T06:52:07;17.50;99.90
563;DHT22;266;49.514;8.294;2023-06-05T06:54:35;17.60;99.90
563;DHT22;266;49.514;8.294;2023-06-05T06:57:05;17.70;99.90
563;DHT22;266;49.514;8.294;2023-06-05T06:59:33;17.80;99.90
563;DHT22;266;49.514;8.294;2023-06-05T07:02:12;17.90;99.90
563;DHT22;266;49.514;8.294;2023-06-05T07:04:41;17.90;99.90
563;DHT22;266;49.514;8.294;2023-06-05T07:07:11;18.10;99.90
563;DHT22;266;49.514;8.294;2023-06-05T07:09:42;18.10;99.90
563;DHT22;266;49.514;8.294;2023-06-05T07:12:11;18.20;99.90
563;DHT22;266;49.514;8.294;2023-06-05T07:14:41;18.30;99.90
563;DHT22;266;49.514;8.294;2023-06-05T07:17:10;18.40;99.90
563;DHT22;266;49.514;8.294;2023-06-05T07:19:39;18.50;99.90
563;DHT22;266;49.514;8.294;2023-06-05T07:22:07;18.60;99.90
563;DHT22;266;49.514;8.294;2023-06-05T07:24:36;18.70;99.90
563;DHT22;266;49.514;8.294;2023-06-05T07:27:06;18.80;99.90
563;DHT22;266;49.514;8.294;2023-06-05T07:29:35;18.90;99.90
563;DHT22;266;49.514;8.294;2023-06-05T07:32:03;19.00;99.90
563;DHT22;266;49.514;8.294;2023-06-05T07:34:34;19.00;99.90
563;DHT22;266;49.514;8.294;2023-06-05T07:37:03;19.20;99.90
563;DHT22;266;49.514;8.294;2023-06-05T07:39:31;19.30;99.90
563;DHT22;266;49.514;8.294;2023-06-05T07:41:59;19.40;99.90
563;DHT22;266;49.514;8.294;2023-06-05T07:44:27;19.50;99.90
563;DHT22;266;49.514;8.294;2023-06-05T07:46:55;19.60;99.90
563;DHT22;266;49.514;8.294;2023-06-05T07:49:24;19.70;99.90
563;DHT22;266;49.514;8.294;2023-06-05T07:51:53;19.80;99.90
563;DHT22;266;49.514;8.294;2023-06-05T07:54:22;19.90;99.90
563;DHT22;266;49.514;8.294;2023-06-05T07:56:50;20.10;99.90
563;DHT22;266;49.514;8.294;2023-06-05T07:59:18;20.20;99.90
563;DHT22;266;49.514;8.294;2023-06-05T08:01:52;20.40;99.90
563;DHT22;266;49.514;8.294;2023-06-05T08:04:20;20.50;99.90
563;DHT22;266;49.514;8.294;2023-06-05T08:06:53;20.70;99.90
563;DHT22;266;49.514;8.294;2023-06-05T08:09:21;20.80;99.90
563;DHT22;266;49.514;8.294;2023-06-05T08:11:49;21.00;99.90
563;DHT22;266;49.514;8.294;2023-06-05T08:14:17;21.20;99.90
563;DHT22;266;49.514;8.294;2023-06-05T08:16:45;21.30;99.90
563;DHT22;266;49.514;8.294;2023-06-05T08:19:13;21.50;99.90
563;DHT22;266;49.514;8.294;2023-06-05T08:21:41;21.70;99.90
563;DHT22;266;49.514;8.294;2023-06-05T08:24:11;21.90;99.90
563;DHT22;266;49.514;8.294;2023-06-05T08:26:39;22.30;99.90
563;DHT22;266;49.514;8.294;2023-06-05T08:29:07;22.70;99.90
563;DHT22;266;49.514;8.294;2023-06-05T08:31:35;22.90;99.80
563;DHT22;266;49.514;8.294;2023-06-05T08:34:03;23.30;98.90
563;DHT22;266;49.514;8.294;2023-06-05T08:36:32;23.70;98.40
563;DHT22;266;49.514;8.294;2023-06-05T08:39:02;24.10;97.80
563;DHT22;266;49.514;8.294;2023-06-05T08:41:32;24.50;97.30
563;DHT22;266;49.514;8.294;2023-06-05T08:44:02;24.70;96.50
563;DHT22;266;49.514;8.294;2023-06-05T08:46:30;25.00;97.00
563;DHT22;266;49.514;8.294;2023-06-05T08:49:07;25.40;95.70
563;DHT22;266;49.514;8.294;2023-06-05T08:51:38;25.70;95.30
563;DHT22;266;49.514;8.294;2023-06-05T08:54:08;25.80;96.00
563;DHT22;266;49.514;8.294;2023-06-05T08:56:42;26.10;94.40
563;DHT22;266;49.514;8.294;2023-06-05T08:59:10;26.30;93.40
563;DHT22;266;49.514;8.294;2023-06-05T09:01:41;26.40;92.50
563;DHT22;266;49.514;8.294;2023-06-05T09:04:10;26.70;92.20
563;DHT22;266;49.514;8.294;2023-06-05T09:06:38;27.00;91.00
563;DHT22;266;49.514;8.294;2023-06-05T09:09:07;27.20;91.00
563;DHT22;266;49.514;8.294;2023-06-05T09:11:36;27.40;90.70
563;DHT22;266;49.514;8.294;2023-06-05T09:14:06;27.70;90.10
563;DHT22;266;49.514;8.294;2023-06-05T09:16:36;27.90;88.60
563;DHT22;266;49.514;8.294;2023-06-05T09:19:05;27.80;89.10
563;DHT22;266;49.514;8.294;2023-06-05T09:21:33;27.90;88.50
563;DHT22;266;49.514;8.294;2023-06-05T09:24:12;27.90;85.80
563;DHT22;266;49.514;8.294;2023-06-05T09:26:50;28.10;87.50
563;DHT22;266;49.514;8.294;2023-06-05T09:29:24;28.10;87.50
563;DHT22;266;49.514;8.294;2023-06-05T09:31:54;28.10;84.90
563;DHT22;266;49.514;8.294;2023-06-05T09:34:24;28.10;85.60
563;DHT22;266;49.514;8.294;2023-06-05T09:36:54;28.10;88.30
563;DHT22;266;49.514;8.294;2023-06-05T09:39:25;28.40;84.80
563;DHT22;266;49.514;8.294;2023-06-05T09:41:54;28.60;83.40
563;DHT22;266;49.514;8.294;2023-06-05T09:44:24;28.60;83.20
563;DHT22;266;49.514;8.294;2023-06-05T09:46:57;28.50;83.60
563;DHT22;266;49.514;8.294;2023-06-05T09:49:28;28.50;82.90
563;DHT22;266;49.514;8.294;2023-06-05T09:51:57;28.80;83.60
563;DHT22;266;49.514;8.294;2023-06-05T09:54:26;29.10;81.70
563;DHT22;266;49.514;8.294;2023-06-05T09:56:58;29.50;78.00
563;DHT22;266;49.514;8.294;2023-06-05T09:59:29;29.60;77.60
563;DHT22;266;49.514;8.294;2023-06-05T10:02:09;29.60;77.80
563;DHT22;266;49.514;8.294;2023-06-05T10:04:46;29.70;76.90
563;DHT22;266;49.514;8.294;2023-06-05T10:07:15;29.50;75.20
563;DHT22;266;49.514;8.294;2023-06-05T10:09:44;29.70;75.70
563;DHT22;266;49.514;8.294;2023-06-05T10:12:12;29.90;74.90
563;DHT22;266;49.514;8.294;2023-06-05T10:14:43;29.90;73.70
563;DHT22;266;49.514;8.294;2023-06-05T10:17:12;30.00;72.30
563;DHT22;266;49.514;8.294;2023-06-05T10:19:41;30.40;77.00
563;DHT22;266;49.514;8.294;2023-06-05T10:22:10;30.50;73.90
563;DHT22;266;49.514;8.294;2023-06-05T10:24:43;30.40;70.00
563;DHT22;266;49.514;8.294;2023-06-05T10:30:37;30.40;75.20
563;DHT22;266;49.514;8.294;2023-06-05T10:33:21;30.60;71.30
563;DHT22;266;49.514;8.294;2023-06-05T10:35:59;30.70;70.50
563;DHT22;266;49.514;8.294;2023-06-05T10:38:30;30.70;70.30
563;DHT22;266;49.514;8.294;2023-06-05T10:41:01;31.00;62.60
563;DHT22;266;49.514;8.294;2023-06-05T10:43:31;31.10;62.70
563;DHT22;266;49.514;8.294;2023-06-05T10:46:02;31.20;62.70
563;DHT22;266;49.514;8.294;2023-06-05T10:49:09;31.30;63.00
563;DHT22;266;49.514;8.294;2023-06-05T10:51:39;31.20;65.30
563;DHT22;266;49.514;8.294;2023-06-05T10:54:10;31.20;65.90
563;DHT22;266;49.514;8.294;2023-06-05T10:56:55;31.50;63.00
563;DHT22;266;49.514;8.294;2023-06-05T10:59:26;31.10;62.70
563;DHT22;266;49.514;8.294;2023-06-05T11:02:23;31.40;62.90
563;DHT22;266;49.514;8.294;2023-06-05T11:05:10;31.80;63.20
563;DHT22;266;49.514;8.294;2023-06-05T11:07:38;32.10;64.50
563;DHT22;266;49.514;8.294;2023-06-05T11:10:09;32.10;63.60
563;DHT22;266;49.514;8.294;2023-06-05T11:12:59;32.20;63.50
563;DHT22;266;49.514;8.294;2023-06-05T11:15:43;32.20;63.50
563;DHT22;266;49.514;8.294;2023-06-05T11:18:35;32.60;63.80
563;DHT22;266;49.514;8.294;2023-06-05T11:21:03;32.50;63.70
563;DHT22;266;49.514;8.294;2023-06-05T11:23:31;32.60;63.80
563;DHT22;266;49.514;8.294;2023-06-05T11:29:01;32.80;64.00
563;DHT22;266;49.514;8.294;2023-06-05T11:31:29;32.50;63.70
563;DHT22;266;49.514;8.294;2023-06-05T11:34:01;32.50;63.70
563;DHT22;266;49.514;8.294;2023-06-05T11:36:29;32.60;63.80
563;DHT22;266;49.514;8.294;2023-06-05T11:38:57;32.50;63.70
563;DHT22;266;49.514;8.294;2023-06-05T11:41:25;32.50;63.70
563;DHT22;266;49.514;8.294;2023-06-05T11:43:54;32.60;63.80
563;DHT22;266;49.514;8.294;2023-06-05T11:46:35;32.80;64.00
563;DHT22;266;49.514;8.294;2023-06-05T11:49:06;33.10;64.20
563;DHT22;266;49.514;8.294;2023-06-05T11:51:34;33.00;64.10
563;DHT22;266;49.514;8.294;2023-06-05T11:54:03;32.90;64.00
563;DHT22;266;49.514;8.294;2023-06-05T11:56:34;32.90;64.00
563;DHT22;266;49.514;8.294;2023-06-05T11:59:09;33.10;64.40
563;DHT22;266;49.514;8.294;2023-06-05T12:01:37;32.70;63.90
563;DHT22;266;49.514;8.294;2023-06-05T12:04:12;32.70;64.00
563;DHT22;266;49.514;8.294;2023-06-05T12:06:45;32.30;63.60
563;DHT22;266;49.514;8.294;2023-06-05T12:09:14;32.40;63.60
563;DHT22;266;49.514;8.294;2023-06-05T12:11:43;32.40;63.60
563;DHT22;266;49.514;8.294;2023-06-05T12:14:13;32.30;63.60
563;DHT22;266;49.514;8.294;2023-06-05T12:16:55;32.40;63.60
563;DHT22;266;49.514;8.294;2023-06-05T12:19:28;32.90;64.20
563;DHT22;266;49.514;8.294;2023-06-05T12:22:02;32.80;64.10
563;DHT22;266;49.514;8.294;2023-06-05T12:24:30;33.10;64.20
563;DHT22;266;49.514;8.294;2023-06-05T12:27:01;33.50;64.50
563;DHT22;266;49.514;8.294;2023-06-05T12:29:32;33.70;64.60
563;DHT22;266;49.514;8.294;2023-06-05T12:32:01;33.50;64.80
563;DHT22;266;49.514;8.294;2023-06-05T12:34:42;33.50;64.50
563;DHT22;266;49.514;8.294;2023-06-05T12:37:22;33.60;64.50
563;DHT22;266;49.514;8.294;2023-06-05T12:39:50;33.40;64.40
563;DHT22;266;49.514;8.294;2023-06-05T12:42:17;33.20;64.40
563;DHT22;266;49.514;8.294;2023-06-05T12:44:46;33.30;64.30
563;DHT22;266;49.514;8.294;2023-06-05T12:47:14;33.10;64.20
563;DHT22;266;49.514;8.294;2023-06-05T12:49:43;33.00;64.10
563;DHT22;266;49.514;8.294;2023-06-05T12:52:12;33.20;64.20
563;DHT22;266;49.514;8.294;2023-06-05T12:54:40;33.10;64.20
563;DHT22;266;49.514;8.294;2023-06-05T12:57:08;32.10;63.60
563;DHT22;266;49.514;8.294;2023-06-05T12:59:39;31.80;63.20
563;DHT22;266;49.514;8.294;2023-06-05T13:02:08;31.80;63.40
563;DHT22;266;49.514;8.294;2023-06-05T13:04:35;31.90;63.40
563;DHT22;266;49.514;8.294;2023-06-05T13:07:05;31.80;63.20
563;DHT22;266;49.514;8.294;2023-06-05T13:09:34;31.90;63.30
563;DHT22;266;49.514;8.294;2023-06-05T13:12:02;32.40;63.60
563;DHT22;266;49.514;8.294;2023-06-05T13:14:30;32.70;64.10
563;DHT22;266;49.514;8.294;2023-06-05T13:16:59;32.70;63.90
563;DHT22;266;49.514;8.294;2023-06-05T13:19:27;31.50;63.10
563;DHT22;266;49.514;8.294;2023-06-05T13:21:55;31.10;63.00
563;DHT22;266;49.514;8.294;2023-06-05T13:24:24;31.10;62.70
563;DHT22;266;49.514;8.294;2023-06-05T13:26:53;31.80;63.20
563;DHT22;266;49.514;8.294;2023-06-05T13:29:21;32.20;63.50
563;DHT22;266;49.514;8.294;2023-06-05T13:31:49;31.60;63.10
563;DHT22;266;49.514;8.294;2023-06-05T13:34:17;31.40;62.90
563;DHT22;266;49.514;8.294;2023-06-05T13:36:45;31.10;62.70
563;DHT22;266;49.514;8.294;2023-06-05T13:39:15;31.30;62.90
563;DHT22;266;49.514;8.294;2023-06-05T13:41:45;31.60;63.30
563;DHT22;266;49.514;8.294;2023-06-05T13:44:14;31.90;58.40
563;DHT22;266;49.514;8.294;2023-06-05T13:46:42;32.20;54.80
563;DHT22;266;49.514;8.294;2023-06-05T13:49:10;32.50;53.20
563;DHT22;266;49.514;8.294;2023-06-05T13:51:38;32.90;52.10
563;DHT22;266;49.514;8.294;2023-06-05T13:54:06;33.10;55.00
563;DHT22;266;49.514;8.294;2023-06-05T13:56:34;32.70;54.20
563;DHT22;266;49.514;8.294;2023-06-05T13:59:04;32.30;52.30
563;DHT22;266;49.514;8.294;2023-06-05T14:01:32;32.00;50.60
563;DHT22;266;49.514;8.294;2023-06-05T14:04:00;32.20;49.50
563;DHT22;266;49.514;8.294;2023-06-05T14:06:28;32.60;54.30
563;DHT22;266;49.514;8.294;2023-06-05T14:08:56;32.50;51.30
563;DHT22;266;49.514;8.294;2023-06-05T14:11:24;32.70;53.80
563;DHT22;266;49.514;8.294;2023-06-05T14:13:53;32.80;51.90
563;DHT22;266;49.514;8.294;2023-06-05T14:16:22;32.70;48.10
563;DHT22;266;49.514;8.294;2023-06-05T14:18:50;32.80;46.80
563;DHT22;266;49.514;8.294;2023-06-05T14:21:18;32.80;46.40
563;DHT22;266;49.514;8.294;2023-06-05T14:23:47;32.90;45.50
563;DHT22;266;49.514;8.294;2023-06-05T14:26:15;32.70;42.30
563;DHT22;266;49.514;8.294;2023-06-05T14:28:43;32.50;43.50
563;DHT22;266;49.514;8.294;2023-06-05T14:31:11;32.20;43.50
563;DHT22;266;49.514;8.294;2023-06-05T14:33:41;32.30;42.20
563;DHT22;266;49.514;8.294;2023-06-05T14:36:08;32.30;45.50
563;DHT22;266;49.514;8.294;2023-06-05T14:38:37;32.20;45.90
563;DHT22;266;49.514;8.294;2023-06-05T14:41:05;32.00;48.50
563;DHT22;266;49.514;8.294;2023-06-05T14:43:34;31.20;45.60
563;DHT22;266;49.514;8.294;2023-06-05T14:46:02;30.50;45.30
563;DHT22;266;49.514;8.294;2023-06-05T14:48:30;30.20;45.50
563;DHT22;266;49.514;8.294;2023-06-05T14:50:59;30.50;41.60
563;DHT22;266;49.514;8.294;2023-06-05T14:53:27;30.90;46.00
563;DHT22;266;49.514;8.294;2023-06-05T14:55:55;31.10;46.80
563;DHT22;266;49.514;8.294;2023-06-05T14:58:24;31.10;43.80
563;DHT22;266;49.514;8.294;2023-06-05T15:00:51;30.90;43.50
563;DHT22;266;49.514;8.294;2023-06-05T15:03:24;31.00;41.10
563;DHT22;266;49.514;8.294;2023-06-05T15:05:54;31.30;40.30
563;DHT22;266;49.514;8.294;2023-06-05T15:08:25;31.50;41.10
563;DHT22;266;49.514;8.294;2023-06-05T15:10:53;31.30;37.60
563;DHT22;266;49.514;8.294;2023-06-05T15:13:21;31.40;40.40
563;DHT22;266;49.514;8.294;2023-06-05T15:15:51;31.40;39.40
563;DHT22;266;49.514;8.294;2023-06-05T15:18:19;31.40;38.10
563;DHT22;266;49.514;8.294;2023-06-05T15:20:47;31.60;36.30
563;DHT22;266;49.514;8.294;2023-06-05T15:23:15;31.60;37.50
563;DHT22;266;49.514;8.294;2023-06-05T15:25:44;31.60;36.10
563;DHT22;266;49.514;8.294;2023-06-05T15:28:12;31.50;35.10
563;DHT22;266;49.514;8.294;2023-06-05T15:30:42;31.60;36.50
563;DHT22;266;49.514;8.294;2023-06-05T15:33:10;31.40;35.20
563;DHT22;266;49.514;8.294;2023-06-05T15:35:38;31.30;37.80
563;DHT22;266;49.514;8.294;2023-06-05T15:38:09;30.90;37.30
563;DHT22;266;49.514;8.294;2023-06-05T15:40:37;30.50;33.50
563;DHT22;266;49.514;8.294;2023-06-05T15:43:09;30.30;34.20
563;DHT22;266;49.514;8.294;2023-06-05T15:45:39;30.20;36.30
563;DHT22;266;49.514;8.294;2023-06-05T15:48:07;30.00;35.50
563;DHT22;266;49.514;8.294;2023-06-05T15:50:36;29.70;37.20
563;DHT22;266;49.514;8.294;2023-06-05T15:53:05;29.50;38.30
563;DHT22;266;49.514;8.294;2023-06-05T15:55:34;29.30;38.20
563;DHT22;266;49.514;8.294;2023-06-05T15:58:08;29.00;37.10
563;DHT22;266;49.514;8.294;2023-06-05T16:00:36;29.00;42.80
563;DHT22;266;49.514;8.294;2023-06-05T16:03:04;29.20;41.30
563;DHT22;266;49.514;8.294;2023-06-05T16:05:33;29.30;39.60
563;DHT22;266;49.514;8.294;2023-06-05T16:08:01;29.30;39.40
563;DHT22;266;49.514;8.294;2023-06-05T16:10:29;29.50;41.90
563;DHT22;266;49.514;8.294;2023-06-05T16:12:57;29.60;41.00
563;DHT22;266;49.514;8.294;2023-06-05T16:15:26;29.30;40.30
563;DHT22;266;49.514;8.294;2023-06-05T16:17:54;28.90;40.50
563;DHT22;266;49.514;8.294;2023-06-05T16:20:22;28.50;42.40
563;DHT22;266;49.514;8.294;2023-06-05T16:22:50;28.10;43.60
563;DHT22;266;49.514;8.294;2023-06-05T16:25:18;28.10;45.50
563;DHT22;266;49.514;8.294;2023-06-05T16:27:46;28.00;46.10
563;DHT22;266;49.514;8.294;2023-06-05T16:30:14;28.00;45.40
563;DHT22;266;49.514;8.294;2023-06-05T16:32:43;28.00;48.60
563;DHT22;266;49.514;8.294;2023-06-05T16:35:13;28.10;43.80
563;DHT22;266;49.514;8.294;2023-06-05T16:37:41;28.10;46.80
563;DHT22;266;49.514;8.294;2023-06-05T16:40:10;28.20;51.20
563;DHT22;266;49.514;8.294;2023-06-05T16:42:38;28.10;46.80
563;DHT22;266;49.514;8.294;2023-06-05T16:45:07;28.10;45.00
563;DHT22;266;49.514;8.294;2023-06-05T16:47:35;28.10;47.20
563;DHT22;266;49.514;8.294;2023-06-05T16:50:09;28.00;46.00
563;DHT22;266;49.514;8.294;2023-06-05T16:52:37;27.90;48.90
563;DHT22;266;49.514;8.294;2023-06-05T16:55:05;28.00;51.70
563;DHT22;266;49.514;8.294;2023-06-05T16:57:33;27.90;48.10